createdAt,value
2024-05-09T00:00:56.702Z,529.00
2024-05-09T00:01:56.603Z,531.00
2024-05-09T00:02:56.615Z,533.00
2024-05-09T00:03:56.629Z,531.00
2024-05-09T00:04:56.702Z,531.00
2024-05-09T00:05:56.703Z,533.00
2024-05-09T00:06:56.759Z,536.00
2024-05-09T00:07:56.725Z,537.00
2024-05-09T00:08:56.777Z,536.00
2024-05-09T00:09:56.871Z,536.00
2024-05-09T00:10:57.001Z,537.00
2024-05-09T00:11:56.968Z,538.00
2024-05-09T00:12:56.971Z,536.00
2024-05-09T00:13:57.019Z,536.00
2024-05-09T00:14:57.038Z,534.00
2024-05-09T00:15:57.090Z,531.00
2024-05-09T00:16:57.185Z,530.00
2024-05-09T00:17:57.405Z,531.00
2024-05-09T00:18:57.386Z,532.00
2024-05-09T00:19:57.250Z,531.00
2024-05-09T00:20:57.285Z,533.00
2024-05-09T00:21:57.339Z,533.00
2024-05-09T00:22:57.413Z,530.00
2024-05-09T00:23:57.390Z,534.00
2024-05-09T00:24:57.460Z,538.00
2024-05-09T00:25:57.610Z,538.00
2024-05-09T00:26:57.584Z,538.00
2024-05-09T00:27:57.679Z,538.00
2024-05-09T00:28:57.664Z,538.00
2024-05-09T00:29:57.635Z,536.00
2024-05-09T00:30:57.728Z,534.00
2024-05-09T00:31:57.811Z,533.00
2024-05-09T00:32:57.948Z,533.00
2024-05-09T00:33:58.070Z,532.00
2024-05-09T00:34:57.921Z,532.00
2024-05-09T00:35:57.939Z,532.00
2024-05-09T00:36:58.067Z,531.00
2024-05-09T00:37:58.030Z,531.00
2024-05-09T00:38:58.062Z,527.00
2024-05-09T00:39:58.078Z,525.00
2024-05-09T00:40:58.129Z,526.00
2024-05-09T00:41:58.291Z,527.00
2024-05-09T00:42:58.207Z,529.00
2024-05-09T00:43:58.342Z,530.00
2024-05-09T00:44:58.304Z,529.00
2024-05-09T00:45:58.453Z,532.00
2024-05-09T00:46:58.394Z,531.00
2024-05-09T00:47:58.696Z,532.00
2024-05-09T00:48:58.689Z,533.00
2024-05-09T00:49:58.517Z,533.00
2024-05-09T00:50:58.607Z,530.00
2024-05-09T00:51:58.566Z,530.00
2024-05-09T00:52:58.638Z,531.00
2024-05-09T00:53:58.680Z,532.00
2024-05-09T00:54:58.789Z,533.00
2024-05-09T00:55:58.854Z,534.00
2024-05-09T00:56:58.799Z,534.00
2024-05-09T00:57:58.839Z,534.00
2024-05-09T00:58:58.937Z,533.00
2024-05-09T00:59:59.043Z,532.00
2024-05-09T01:00:59.057Z,532.00
2024-05-09T01:01:59.136Z,533.00
2024-05-09T01:02:59.197Z,533.00
2024-05-09T01:03:59.270Z,536.00
2024-05-09T01:05:00.001Z,537.00
2024-05-09T01:05:59.287Z,535.00
2024-05-09T01:06:59.283Z,535.00
2024-05-09T01:07:59.379Z,533.00
2024-05-09T01:08:59.398Z,532.00
2024-05-09T01:09:59.430Z,532.00
2024-05-09T01:10:59.591Z,534.00
2024-05-09T01:11:59.613Z,535.00
2024-05-09T01:12:59.567Z,534.00
2024-05-09T01:13:59.787Z,536.00
2024-05-09T01:14:59.682Z,535.00
2024-05-09T01:15:59.874Z,535.00
2024-05-09T01:16:59.785Z,534.00
2024-05-09T01:18:00.008Z,536.00
2024-05-09T01:18:59.957Z,537.00
2024-05-09T01:20:00.077Z,533.00
2024-05-09T01:21:00.027Z,533.00
2024-05-09T01:22:00.108Z,535.00
2024-05-09T01:23:00.112Z,537.00
2024-05-09T01:24:00.114Z,537.00
2024-05-09T01:25:00.185Z,536.00
2024-05-09T01:26:00.362Z,535.00
2024-05-09T01:27:00.282Z,537.00
2024-05-09T01:28:00.377Z,536.00
2024-05-09T01:29:00.433Z,536.00
2024-05-09T01:30:00.439Z,535.00
2024-05-09T01:31:00.506Z,537.00
2024-05-09T01:32:00.682Z,535.00
2024-05-09T01:33:00.948Z,533.00
2024-05-09T01:34:00.738Z,529.00
2024-05-09T01:35:00.819Z,530.00
2024-05-09T01:36:00.942Z,529.00
2024-05-09T01:37:00.819Z,532.00
2024-05-09T01:38:00.876Z,533.00
2024-05-09T01:39:00.930Z,531.00
2024-05-09T01:40:00.971Z,531.00
2024-05-09T01:41:01.118Z,533.00
2024-05-09T01:42:01.195Z,535.00
2024-05-09T01:43:01.094Z,535.00
2024-05-09T01:44:01.179Z,535.00
2024-05-09T01:45:01.227Z,533.00
2024-05-09T01:46:01.246Z,530.00
2024-05-09T01:47:01.472Z,532.00
2024-05-09T01:48:02.246Z,533.00
2024-05-09T01:49:01.625Z,534.00
2024-05-09T01:50:01.578Z,533.00
2024-05-09T01:51:01.607Z,534.00
2024-05-09T01:52:01.570Z,535.00
2024-05-09T01:53:01.790Z,536.00
2024-05-09T01:54:01.968Z,535.00
2024-05-09T01:55:05.596Z,534.00
2024-05-09T01:56:01.773Z,534.00
2024-05-09T01:57:01.719Z,533.00
2024-05-09T01:58:01.773Z,532.00
2024-05-09T01:59:01.805Z,534.00
2024-05-09T02:00:01.711Z,534.00
2024-05-09T02:01:01.740Z,533.00
2024-05-09T02:02:01.877Z,534.00
2024-05-09T02:03:02.122Z,533.00
2024-05-09T02:04:02.109Z,532.00
2024-05-09T02:05:01.837Z,533.00
2024-05-09T02:06:01.915Z,534.00
2024-05-09T02:07:01.675Z,535.00
2024-05-09T02:08:01.768Z,535.00
2024-05-09T02:09:01.823Z,531.00
2024-05-09T02:10:02.061Z,533.00
2024-05-09T02:11:01.999Z,534.00
2024-05-09T02:12:02.088Z,534.00
2024-05-09T02:13:01.991Z,535.00
2024-05-09T02:14:02.054Z,537.00
2024-05-09T02:15:02.107Z,537.00
2024-05-09T02:16:02.146Z,534.00
2024-05-09T02:17:02.324Z,535.00
2024-05-09T02:18:02.480Z,536.00
2024-05-09T02:19:02.448Z,535.00
2024-05-09T02:20:02.803Z,533.00
2024-05-09T02:21:02.604Z,533.00
2024-05-09T02:22:02.474Z,535.00
2024-05-09T02:23:02.554Z,534.00
2024-05-09T02:24:02.593Z,532.00
2024-05-09T02:25:02.635Z,534.00
2024-05-09T02:26:02.834Z,532.00
2024-05-09T02:27:02.750Z,533.00
2024-05-09T02:28:02.862Z,532.00
2024-05-09T02:29:02.911Z,532.00
2024-05-09T02:30:04.664Z,530.00
2024-05-09T02:31:02.934Z,533.00
2024-05-09T02:32:03.194Z,534.00
2024-05-09T02:33:03.106Z,534.00
2024-05-09T02:34:03.239Z,534.00
2024-05-09T02:35:03.114Z,531.00
2024-05-09T02:36:02.910Z,532.00
2024-05-09T02:37:02.934Z,530.00
2024-05-09T02:38:03.151Z,531.00
2024-05-09T02:39:02.994Z,532.00
2024-05-09T02:40:03.453Z,532.00
2024-05-09T02:41:02.909Z,529.00
2024-05-09T02:42:02.901Z,529.00
2024-05-09T02:43:02.917Z,528.00
2024-05-09T02:44:02.982Z,526.00
2024-05-09T02:45:02.940Z,525.00
2024-05-09T02:46:02.950Z,527.00
2024-05-09T02:47:02.970Z,530.00
2024-05-09T02:48:03.259Z,532.00
2024-05-09T02:49:03.079Z,531.00
2024-05-09T02:50:03.660Z,529.00
2024-05-09T02:51:03.083Z,528.00
2024-05-09T02:52:02.978Z,527.00
2024-05-09T02:53:03.022Z,527.00
2024-05-09T02:54:02.931Z,526.00
2024-05-09T02:55:02.934Z,529.00
2024-05-09T02:56:03.025Z,533.00
2024-05-09T02:57:02.958Z,534.00
2024-05-09T02:58:03.045Z,536.00
2024-05-09T02:59:03.104Z,536.00
2024-05-09T03:00:03.605Z,537.00
2024-05-09T03:01:03.244Z,537.00
2024-05-09T03:02:03.317Z,539.00
2024-05-09T03:03:03.517Z,538.00
2024-05-09T03:04:03.471Z,536.00
2024-05-09T03:05:03.509Z,536.00
2024-05-09T03:06:03.489Z,535.00
2024-05-09T03:07:03.527Z,533.00
2024-05-09T03:08:03.693Z,533.00
2024-05-09T03:09:03.646Z,533.00
2024-05-09T03:10:05.787Z,535.00
2024-05-09T03:11:04.729Z,536.00
2024-05-09T03:12:03.792Z,535.00
2024-05-09T03:13:03.956Z,536.00
2024-05-09T03:14:03.766Z,534.00
2024-05-09T03:15:03.715Z,534.00
2024-05-09T03:16:03.699Z,536.00
2024-05-09T03:17:03.800Z,535.00
2024-05-09T03:18:04.142Z,534.00
2024-05-09T03:19:03.965Z,536.00
2024-05-09T03:20:05.234Z,536.00
2024-05-09T03:21:04.042Z,536.00
2024-05-09T03:22:03.865Z,535.00
2024-05-09T03:23:04.290Z,540.00
2024-05-09T03:24:03.865Z,538.00
2024-05-09T03:25:03.855Z,540.00
2024-05-09T03:26:03.970Z,541.00
2024-05-09T03:27:03.879Z,539.00
2024-05-09T03:28:03.995Z,540.00
2024-05-09T03:29:03.926Z,539.00
2024-05-09T03:30:05.522Z,537.00
2024-05-09T03:31:03.895Z,534.00
2024-05-09T03:32:04.046Z,535.00
2024-05-09T03:33:04.082Z,534.00
2024-05-09T03:34:04.126Z,534.00
2024-05-09T03:35:03.887Z,532.00
2024-05-09T03:36:05.027Z,530.00
2024-05-09T03:37:04.490Z,526.00
2024-05-09T03:38:03.986Z,524.00
2024-05-09T03:39:04.026Z,523.00
2024-05-09T03:40:05.646Z,523.00
2024-05-09T03:41:03.960Z,525.00
2024-05-09T03:42:03.941Z,525.00
2024-05-09T03:43:03.976Z,525.00
2024-05-09T03:44:03.990Z,528.00
2024-05-09T03:45:03.965Z,532.00
2024-05-09T03:46:03.978Z,534.00
2024-05-09T03:47:04.051Z,534.00
2024-05-09T03:48:04.124Z,535.00
2024-05-09T03:49:03.969Z,533.00
2024-05-09T03:50:05.629Z,531.00
2024-05-09T03:51:03.974Z,530.00
2024-05-09T03:52:03.979Z,532.00
2024-05-09T03:53:04.118Z,534.00
2024-05-09T03:54:03.961Z,533.00
2024-05-09T03:55:03.933Z,533.00
2024-05-09T03:56:03.987Z,532.00
2024-05-09T03:57:04.067Z,532.00
2024-05-09T03:58:03.940Z,532.00
2024-05-09T03:59:04.032Z,531.00
2024-05-09T04:00:05.518Z,530.00
2024-05-09T04:01:04.031Z,529.00
2024-05-09T04:02:04.146Z,529.00
2024-05-09T04:03:04.457Z,524.00
2024-05-09T04:04:04.018Z,523.00
2024-05-09T04:05:04.083Z,524.00
2024-05-09T04:06:04.018Z,525.00
2024-05-09T04:07:04.007Z,530.00
2024-05-09T04:08:04.060Z,535.00
2024-05-09T04:09:04.025Z,537.00
2024-05-09T04:10:05.248Z,537.00
2024-05-09T04:11:04.221Z,538.00
2024-05-09T04:12:04.196Z,540.00
2024-05-09T04:13:04.406Z,539.00
2024-05-09T04:14:12.148Z,530.00
2024-05-09T04:15:13.641Z,530.00
2024-05-09T04:16:12.096Z,534.00
2024-05-09T04:17:12.136Z,537.00
2024-05-09T04:18:12.281Z,539.00
2024-05-09T04:19:12.190Z,539.00
2024-05-09T04:20:21.346Z,539.00
2024-05-09T04:21:13.135Z,540.00
2024-05-09T04:22:12.134Z,539.00
2024-05-09T04:23:12.629Z,539.00
2024-05-09T04:24:12.100Z,539.00
2024-05-09T04:25:12.088Z,539.00
2024-05-09T04:26:12.160Z,538.00
2024-05-09T04:27:12.109Z,539.00
2024-05-09T04:28:12.140Z,540.00
2024-05-09T04:29:12.249Z,542.00
2024-05-09T04:30:18.515Z,544.00
2024-05-09T04:31:24.275Z,542.00
2024-05-09T04:32:24.412Z,536.00
2024-05-09T04:33:24.529Z,534.00
2024-05-09T04:34:24.363Z,536.00
2024-05-09T04:35:24.654Z,536.00
2024-05-09T04:36:24.313Z,536.00
2024-05-09T04:37:24.313Z,537.00
2024-05-09T04:38:24.336Z,539.00
2024-05-09T04:39:24.339Z,539.00
2024-05-09T04:40:31.447Z,538.00
2024-05-09T04:41:25.354Z,543.00
2024-05-09T04:42:24.283Z,542.00
2024-05-09T04:43:24.306Z,539.00
2024-05-09T04:44:24.350Z,539.00
2024-05-09T04:45:24.329Z,539.00
2024-05-09T04:46:24.321Z,540.00
2024-05-09T04:47:24.470Z,539.00
2024-05-09T04:48:24.401Z,538.00
2024-05-09T04:49:24.582Z,539.00
2024-05-09T04:50:33.838Z,538.00
2024-05-09T04:51:25.434Z,537.00
2024-05-09T04:52:24.432Z,538.00
2024-05-09T04:53:24.493Z,540.00
2024-05-09T04:54:33.698Z,540.00
2024-05-09T04:55:25.444Z,540.00
2024-05-09T04:56:24.561Z,539.00
2024-05-09T04:57:24.451Z,538.00
2024-05-09T04:58:24.464Z,538.00
2024-05-09T04:59:59.745Z,534.00
2024-05-09T05:00:59.783Z,540.00
2024-05-09T05:01:59.866Z,543.00
2024-05-09T05:02:59.993Z,543.00
2024-05-09T05:03:59.963Z,543.00
2024-05-09T05:04:59.847Z,544.00
2024-05-09T05:05:59.943Z,540.00
2024-05-09T05:07:02.708Z,541.00
2024-05-09T05:07:59.788Z,541.00
2024-05-09T05:08:59.760Z,541.00
2024-05-09T05:09:59.770Z,543.00
2024-05-09T05:10:59.878Z,543.00
2024-05-09T05:11:59.944Z,542.00
2024-05-09T05:12:59.786Z,540.00
2024-05-09T05:13:59.824Z,539.00
2024-05-09T05:14:59.740Z,539.00
2024-05-09T05:15:59.747Z,541.00
2024-05-09T05:16:59.796Z,539.00
2024-05-09T05:17:59.956Z,538.00
2024-05-09T05:18:59.817Z,537.00
2024-05-09T05:19:59.910Z,536.00
2024-05-09T05:20:59.863Z,535.00
2024-05-09T05:21:59.777Z,537.00
2024-05-09T05:22:59.840Z,538.00
2024-05-09T05:23:59.761Z,540.00
2024-05-09T05:24:59.758Z,541.00
2024-05-09T05:25:59.795Z,540.00
2024-05-09T05:26:59.773Z,541.00
2024-05-09T05:27:59.774Z,539.00
2024-05-09T05:28:59.807Z,537.00
2024-05-09T05:29:59.794Z,536.00
2024-05-09T05:30:59.805Z,537.00
2024-05-09T05:32:00.008Z,539.00
2024-05-09T05:33:00.221Z,539.00
2024-05-09T05:33:59.888Z,540.00
2024-05-09T05:34:59.851Z,539.00
2024-05-09T05:35:59.780Z,539.00
2024-05-09T05:36:59.785Z,539.00
2024-05-09T05:37:59.834Z,540.00
2024-05-09T05:38:59.808Z,540.00
2024-05-09T05:39:59.808Z,541.00
2024-05-09T05:40:59.876Z,541.00
2024-05-09T05:41:59.889Z,540.00
2024-05-09T05:42:59.926Z,536.00
2024-05-09T05:44:00.041Z,538.00
2024-05-09T05:45:00.161Z,541.00
2024-05-09T05:46:00.161Z,542.00
2024-05-09T05:47:00.228Z,541.00
2024-05-09T05:48:00.637Z,538.00
2024-05-09T05:49:00.463Z,535.00
2024-05-09T05:50:00.588Z,535.00
2024-05-09T05:51:02.673Z,532.00
2024-05-09T05:52:00.508Z,532.00
2024-05-09T05:53:00.663Z,531.00
2024-05-09T05:54:00.508Z,531.00
2024-05-09T05:55:00.479Z,532.00
2024-05-09T05:56:00.542Z,531.00
2024-05-09T05:57:00.508Z,530.00
2024-05-09T05:58:00.496Z,532.00
2024-05-09T05:59:00.530Z,532.00
2024-05-09T06:00:00.547Z,532.00
2024-05-09T06:01:00.519Z,532.00
2024-05-09T06:02:00.596Z,534.00
2024-05-09T06:03:00.550Z,537.00
2024-05-09T06:04:00.643Z,540.00
2024-05-09T06:05:00.658Z,539.00
2024-05-09T06:06:00.715Z,539.00
2024-05-09T06:07:00.501Z,537.00
2024-05-09T06:08:00.780Z,537.00
2024-05-09T06:09:00.982Z,537.00
2024-05-09T06:10:00.572Z,537.00
2024-05-09T06:11:00.614Z,536.00
2024-05-09T06:12:00.616Z,534.00
2024-05-09T06:13:00.489Z,534.00
2024-05-09T06:14:00.590Z,533.00
2024-05-09T06:15:00.511Z,532.00
2024-05-09T06:16:00.517Z,531.00
2024-05-09T06:17:00.580Z,529.00
2024-05-09T06:18:00.786Z,531.00
2024-05-09T06:19:00.669Z,533.00
2024-05-09T06:20:00.594Z,536.00
2024-05-09T06:21:00.685Z,535.00
2024-05-09T06:22:00.656Z,532.00
2024-05-09T06:23:00.804Z,531.00
2024-05-09T06:24:02.620Z,531.00
2024-05-09T06:25:00.783Z,531.00
2024-05-09T06:26:00.858Z,533.00
2024-05-09T06:27:00.790Z,533.00
2024-05-09T06:28:00.796Z,534.00
2024-05-09T06:29:00.826Z,537.00
2024-05-09T06:30:00.829Z,536.00
2024-05-09T06:31:00.770Z,536.00
2024-05-09T06:32:00.948Z,538.00
2024-05-09T06:33:00.923Z,538.00
2024-05-09T06:34:01.017Z,541.00
2024-05-09T06:35:00.865Z,541.00
2024-05-09T06:36:00.805Z,539.00
2024-05-09T06:37:00.815Z,540.00
2024-05-09T06:38:00.932Z,539.00
2024-05-09T06:39:00.790Z,539.00
2024-05-09T06:40:00.800Z,540.00
2024-05-09T06:41:00.872Z,543.00
2024-05-09T06:42:00.800Z,542.00
2024-05-09T06:43:00.811Z,542.00
2024-05-09T06:44:00.848Z,541.00
2024-05-09T06:45:00.833Z,541.00
2024-05-09T06:46:00.826Z,538.00
2024-05-09T06:47:00.942Z,540.00
2024-05-09T06:48:01.038Z,542.00
2024-05-09T06:49:00.889Z,541.00
2024-05-09T06:50:00.854Z,542.00
2024-05-09T06:51:01.004Z,541.00
2024-05-09T06:52:00.810Z,540.00
2024-05-09T06:53:00.859Z,538.00
2024-05-09T06:54:00.829Z,537.00
2024-05-09T06:55:00.784Z,536.00
2024-05-09T06:56:00.856Z,534.00
2024-05-09T06:57:00.824Z,534.00
2024-05-09T06:58:00.867Z,536.00
2024-05-09T06:59:00.847Z,535.00
2024-05-09T07:00:01.063Z,534.00
2024-05-09T07:01:00.864Z,535.00
2024-05-09T07:02:00.877Z,537.00
2024-05-09T07:03:03.643Z,536.00
2024-05-09T07:04:00.922Z,538.00
2024-05-09T07:05:01.139Z,538.00
2024-05-09T07:06:00.917Z,535.00
2024-05-09T07:07:00.820Z,535.00
2024-05-09T07:08:00.900Z,537.00
2024-05-09T07:09:00.836Z,537.00
2024-05-09T07:10:00.839Z,534.00
2024-05-09T07:11:00.978Z,531.00
2024-05-09T07:12:00.884Z,529.00
2024-05-09T07:13:00.800Z,529.00
2024-05-09T07:14:00.859Z,529.00
2024-05-09T07:15:00.818Z,532.00
2024-05-09T07:16:00.840Z,531.00
2024-05-09T07:17:00.968Z,529.00
2024-05-09T07:18:00.965Z,529.00
2024-05-09T07:19:00.929Z,531.00
2024-05-09T07:20:00.944Z,532.00
2024-05-09T07:21:00.867Z,533.00
2024-05-09T07:22:00.872Z,533.00
2024-05-09T07:23:00.910Z,535.00
2024-05-09T07:24:00.852Z,536.00
2024-05-09T07:25:00.889Z,535.00
2024-05-09T07:26:00.867Z,534.00
2024-05-09T07:27:00.863Z,533.00
2024-05-09T07:28:00.858Z,535.00
2024-05-09T07:29:00.943Z,533.00
2024-05-09T07:30:00.931Z,536.00
2024-05-09T07:31:01.002Z,537.00
2024-05-09T07:32:01.048Z,535.00
2024-05-09T07:33:01.647Z,533.00
2024-05-09T07:34:01.130Z,533.00
2024-05-09T07:35:01.104Z,530.00
2024-05-09T07:36:01.125Z,529.00
2024-05-09T07:37:01.126Z,530.00
2024-05-09T07:38:01.300Z,531.00
2024-05-09T07:39:01.207Z,531.00
2024-05-09T07:40:01.198Z,533.00
2024-05-09T07:41:02.107Z,533.00
2024-05-09T07:42:01.325Z,532.00
2024-05-09T07:43:01.286Z,530.00
2024-05-09T07:44:01.393Z,530.00
2024-05-09T07:45:20.953Z,530.00
2024-05-09T07:46:51.824Z,532.00
2024-05-09T07:53:24.950Z,526.00
2024-05-09T07:53:36.118Z,525.00
2024-05-09T07:54:03.035Z,523.00
2024-05-09T07:55:01.620Z,522.00
2024-05-09T07:56:01.551Z,522.00
2024-05-09T07:57:01.577Z,523.00
2024-05-09T07:58:01.457Z,523.00
2024-05-09T07:59:01.389Z,524.00
2024-05-09T08:00:01.407Z,525.00
2024-05-09T08:01:01.502Z,527.00
2024-05-09T08:02:01.418Z,529.00
2024-05-09T08:03:01.433Z,530.00
2024-05-09T08:04:01.520Z,530.00
2024-05-09T08:05:01.709Z,527.00
2024-05-09T08:06:01.432Z,524.00
2024-05-09T08:07:01.448Z,522.00
2024-05-09T08:08:01.350Z,522.00
2024-05-09T08:09:05.497Z,521.00
2024-05-09T08:10:02.772Z,524.00
2024-05-09T08:11:01.459Z,526.00
2024-05-09T08:12:01.423Z,527.00
2024-05-09T08:13:01.464Z,526.00
2024-05-09T08:14:01.425Z,526.00
2024-05-09T08:15:01.390Z,526.00
2024-05-09T08:16:01.524Z,526.00
2024-05-09T08:17:01.454Z,526.00
2024-05-09T08:18:01.546Z,527.00
2024-05-09T08:19:01.628Z,525.00
2024-05-09T08:20:02.975Z,522.00
2024-05-09T08:21:01.520Z,523.00
2024-05-09T08:22:01.601Z,521.00
2024-05-09T08:23:01.541Z,520.00
2024-05-09T08:24:01.527Z,519.00
2024-05-09T08:25:01.615Z,516.00
2024-05-09T08:26:01.527Z,516.00
2024-05-09T08:27:01.523Z,519.00
2024-05-09T08:28:01.660Z,523.00
2024-05-09T08:29:01.534Z,522.00
2024-05-09T08:30:01.644Z,522.00
2024-05-09T08:31:05.182Z,524.00
2024-05-09T08:32:02.761Z,528.00
2024-05-09T08:33:01.671Z,529.00
2024-05-09T08:34:01.630Z,533.00
2024-05-09T08:35:01.640Z,534.00
2024-05-09T08:36:01.590Z,531.00
2024-05-09T08:37:09.807Z,528.00
2024-05-09T08:38:02.839Z,529.00
2024-05-09T08:39:01.555Z,527.00
2024-05-09T08:40:01.643Z,529.00
2024-05-09T08:41:01.569Z,527.00
2024-05-09T08:42:01.616Z,528.00
2024-05-09T08:43:01.651Z,528.00
2024-05-09T08:44:01.549Z,527.00
2024-05-09T08:45:01.554Z,527.00
2024-05-09T08:46:01.576Z,528.00
2024-05-09T08:47:01.561Z,528.00
2024-05-09T08:48:01.709Z,530.00
2024-05-09T08:49:01.789Z,527.00
2024-05-09T08:50:01.767Z,528.00
2024-05-09T08:51:01.563Z,528.00
2024-05-09T08:52:01.676Z,527.00
2024-05-09T08:53:01.585Z,528.00
2024-05-09T08:54:01.599Z,526.00
2024-05-09T08:55:01.626Z,527.00
2024-05-09T08:56:01.610Z,526.00
2024-05-09T08:57:01.626Z,525.00
2024-05-09T08:58:01.824Z,523.00
2024-05-09T08:59:01.636Z,523.00
2024-05-09T09:00:01.643Z,525.00
2024-05-09T09:01:01.785Z,526.00
2024-05-09T09:02:01.753Z,526.00
2024-05-09T09:03:01.715Z,527.00
2024-05-09T09:04:02.056Z,525.00
2024-05-09T09:05:01.920Z,526.00
2024-05-09T09:06:01.772Z,526.00
2024-05-09T09:07:03.527Z,527.00
2024-05-09T09:08:01.793Z,527.00
2024-05-09T09:09:01.793Z,528.00
2024-05-09T09:10:01.967Z,529.00
2024-05-09T09:11:01.873Z,531.00
2024-05-09T09:12:01.988Z,531.00
2024-05-09T09:13:01.960Z,529.00
2024-05-09T09:14:01.950Z,529.00
2024-05-09T09:15:01.943Z,527.00
2024-05-09T09:16:02.043Z,527.00
2024-05-09T09:17:01.999Z,526.00
2024-05-09T09:18:02.184Z,525.00
2024-05-09T09:19:02.082Z,525.00
2024-05-09T09:20:02.253Z,525.00
2024-05-09T09:21:02.087Z,526.00
2024-05-09T09:22:02.150Z,529.00
2024-05-09T09:23:02.122Z,532.00
2024-05-09T09:24:02.130Z,531.00
2024-05-09T09:25:02.259Z,530.00
2024-05-09T09:26:02.179Z,532.00
2024-05-09T09:27:02.188Z,533.00
2024-05-09T09:28:02.209Z,532.00
2024-05-09T09:29:02.151Z,531.00
2024-05-09T09:30:02.229Z,531.00
2024-05-09T09:31:02.266Z,531.00
2024-05-09T09:32:02.201Z,531.00
2024-05-09T09:33:02.367Z,532.00
2024-05-09T09:34:02.352Z,533.00
2024-05-09T09:35:02.284Z,531.00
2024-05-09T09:36:02.255Z,532.00
2024-05-09T09:37:02.343Z,530.00
2024-05-09T09:38:02.203Z,530.00
2024-05-09T09:39:02.233Z,530.00
2024-05-09T09:40:02.287Z,532.00
2024-05-09T09:41:02.382Z,532.00
2024-05-09T09:42:02.250Z,530.00
2024-05-09T09:43:02.412Z,528.00
2024-05-09T09:44:02.309Z,529.00
2024-05-09T09:45:05.410Z,529.00
2024-05-09T09:46:02.494Z,528.00
2024-05-09T09:47:02.359Z,528.00
2024-05-09T09:48:02.414Z,527.00
2024-05-09T09:49:02.625Z,527.00
2024-05-09T09:50:02.353Z,527.00
2024-05-09T09:51:02.333Z,527.00
2024-05-09T09:52:02.437Z,526.00
2024-05-09T09:53:02.334Z,523.00
2024-05-09T09:54:02.326Z,522.00
2024-05-09T09:55:02.416Z,524.00
2024-05-09T09:56:02.408Z,526.00
2024-05-09T09:57:02.367Z,527.00
2024-05-09T09:58:02.394Z,525.00
2024-05-09T09:59:02.363Z,526.00
2024-05-09T10:00:03.235Z,526.00
2024-05-09T10:01:02.540Z,526.00
2024-05-09T10:02:02.544Z,525.00
2024-05-09T10:03:02.515Z,525.00
2024-05-09T10:04:02.463Z,526.00
2024-05-09T10:05:02.535Z,526.00
2024-05-09T10:06:02.418Z,528.00
2024-05-09T10:07:02.420Z,529.00
2024-05-09T10:08:02.345Z,530.00
2024-05-09T10:09:02.350Z,530.00
2024-05-09T10:10:02.603Z,531.00
2024-05-09T10:11:02.482Z,530.00
2024-05-09T10:12:02.407Z,530.00
2024-05-09T10:13:02.495Z,531.00
2024-05-09T10:14:02.388Z,530.00
2024-05-09T10:15:02.398Z,530.00
2024-05-09T10:16:02.395Z,528.00
2024-05-09T10:17:02.452Z,528.00
2024-05-09T10:18:02.552Z,528.00
2024-05-09T10:19:02.565Z,528.00
2024-05-09T10:20:02.540Z,527.00
2024-05-09T10:21:02.383Z,525.00
2024-05-09T10:22:02.484Z,524.00
2024-05-09T10:23:02.413Z,524.00
2024-05-09T10:24:02.420Z,528.00
2024-05-09T10:25:04.738Z,528.00
2024-05-09T10:26:02.578Z,528.00
2024-05-09T10:27:02.606Z,528.00
2024-05-09T10:28:02.641Z,528.00
2024-05-09T10:29:02.592Z,526.00
2024-05-09T10:31:02.699Z,524.00
2024-05-09T10:32:02.681Z,527.00
2024-05-09T10:33:02.939Z,528.00
2024-05-09T10:34:02.983Z,527.00
2024-05-09T10:35:02.902Z,526.00
2024-05-09T10:36:02.795Z,522.00
2024-05-09T10:37:04.917Z,522.00
2024-05-09T10:38:02.803Z,523.00
2024-05-09T10:39:02.843Z,526.00
2024-05-09T10:40:07.124Z,526.00
2024-05-09T10:41:03.855Z,526.00
2024-05-09T10:42:02.857Z,525.00
2024-05-09T10:43:05.796Z,524.00
2024-05-09T10:44:02.859Z,523.00
2024-05-09T10:45:02.865Z,521.00
2024-05-09T10:46:03.120Z,523.00
2024-05-09T10:47:02.953Z,526.00
2024-05-09T10:48:03.200Z,526.00
2024-05-09T10:49:07.031Z,526.00
2024-05-09T10:50:07.801Z,527.00
2024-05-09T10:51:03.875Z,527.00
2024-05-09T10:52:02.979Z,530.00
2024-05-09T10:53:02.878Z,532.00
2024-05-09T10:54:02.832Z,530.00
2024-05-09T10:55:05.504Z,530.00
2024-05-09T10:56:02.892Z,531.00
2024-05-09T10:57:02.925Z,531.00
2024-05-09T10:58:02.945Z,531.00
2024-05-09T10:59:02.838Z,531.00
2024-05-09T11:00:03.815Z,531.00
2024-05-09T11:01:06.264Z,532.00
2024-05-09T11:02:03.086Z,533.00
2024-05-09T11:03:03.044Z,534.00
2024-05-09T11:04:03.275Z,532.00
2024-05-09T11:05:03.026Z,532.00
2024-05-09T11:06:02.925Z,532.00
2024-05-09T11:07:05.089Z,532.00
2024-05-09T11:08:03.054Z,533.00
2024-05-09T11:09:03.108Z,531.00
2024-05-09T11:10:03.492Z,530.00
2024-05-09T11:11:03.350Z,529.00
2024-05-09T11:12:03.305Z,527.00
2024-05-09T11:13:03.375Z,523.00
2024-05-09T11:14:03.351Z,522.00
2024-05-09T11:15:03.382Z,522.00
2024-05-09T11:16:03.573Z,520.00
2024-05-09T11:17:03.528Z,520.00
2024-05-09T11:18:03.666Z,520.00
2024-05-09T11:19:03.752Z,522.00
2024-05-09T11:20:08.130Z,524.00
2024-05-09T11:21:04.568Z,524.00
2024-05-09T11:22:03.598Z,524.00
2024-05-09T11:23:03.555Z,527.00
2024-05-09T11:24:04.101Z,527.00
2024-05-09T11:25:03.616Z,525.00
2024-05-09T11:26:03.580Z,525.00
2024-05-09T11:27:03.589Z,527.00
2024-05-09T11:28:03.764Z,527.00
2024-05-09T11:29:03.589Z,522.00
2024-05-09T11:30:04.396Z,520.00
2024-05-09T11:31:03.695Z,520.00
2024-05-09T11:32:03.600Z,522.00
2024-05-09T11:33:03.665Z,522.00
2024-05-09T11:34:03.729Z,522.00
2024-05-09T11:35:03.702Z,523.00
2024-05-09T11:36:03.771Z,525.00
2024-05-09T11:37:03.830Z,524.00
2024-05-09T11:38:03.827Z,522.00
2024-05-09T11:39:04.091Z,521.00
2024-05-09T11:40:06.813Z,520.00
2024-05-09T11:41:03.907Z,521.00
2024-05-09T11:42:03.863Z,520.00
2024-05-09T11:43:03.955Z,521.00
2024-05-09T11:44:03.879Z,525.00
2024-05-09T11:45:03.925Z,524.00
2024-05-09T11:46:04.307Z,525.00
2024-05-09T11:47:03.890Z,525.00
2024-05-09T11:48:03.982Z,526.00
2024-05-09T11:49:04.024Z,526.00
2024-05-09T11:50:07.613Z,526.00
2024-05-09T11:51:03.867Z,527.00
2024-05-09T11:52:03.900Z,527.00
2024-05-09T11:53:03.859Z,528.00
2024-05-09T11:54:03.991Z,529.00
2024-05-09T11:55:03.918Z,528.00
2024-05-09T11:56:04.078Z,526.00
2024-05-09T11:57:03.888Z,522.00
2024-05-09T11:58:04.039Z,520.00
2024-05-09T11:59:03.895Z,520.00
2024-05-09T12:00:05.619Z,519.00
2024-05-09T12:01:03.999Z,519.00
2024-05-09T12:02:04.021Z,519.00
2024-05-09T12:03:03.974Z,522.00
2024-05-09T12:04:04.141Z,524.00
2024-05-09T12:05:03.979Z,524.00
2024-05-09T12:06:04.114Z,525.00
2024-05-09T12:07:03.966Z,526.00
2024-05-09T12:08:03.928Z,529.00
2024-05-09T12:09:04.608Z,528.00
2024-05-09T12:10:06.209Z,526.00
2024-05-09T12:11:04.110Z,528.00
2024-05-09T12:12:03.919Z,528.00
2024-05-09T12:13:05.670Z,527.00
2024-05-09T12:14:03.909Z,526.00
2024-05-09T12:15:03.918Z,528.00
2024-05-09T12:16:03.988Z,528.00
2024-05-09T12:17:04.033Z,529.00
2024-05-09T12:18:04.514Z,529.00
2024-05-09T12:19:04.118Z,529.00
2024-05-09T12:20:07.066Z,529.00
2024-05-09T12:21:04.936Z,529.00
2024-05-09T12:22:03.976Z,527.00
2024-05-09T12:23:03.949Z,526.00
2024-05-09T12:24:03.929Z,526.00
2024-05-09T12:25:03.993Z,524.00
2024-05-09T12:26:03.946Z,524.00
2024-05-09T12:27:03.961Z,525.00
2024-05-09T12:28:04.107Z,525.00
2024-05-09T12:29:03.971Z,521.00
2024-05-09T12:30:04.658Z,523.00
2024-05-09T12:31:04.029Z,524.00
2024-05-09T12:32:03.945Z,525.00
2024-05-09T12:33:04.088Z,525.00
2024-05-09T12:34:04.077Z,527.00
2024-05-09T12:35:03.944Z,527.00
2024-05-09T12:36:03.969Z,529.00